sensor_id;sensor_type;location;lat;lon;timestamp;temperature;humidity
37086;DHT22;23001;45.952;12.676;2023-04-07T00:00:02;6.80;99.90
37086;DHT22;23001;45.952;12.676;2023-04-07T00:02:30;6.70;99.90
37086;DHT22;23001;45.952;12.676;2023-04-07T00:04:56;6.70;99.90
37086;DHT22;23001;45.952;12.676;2023-04-07T00:07:22;6.80;99.90
37086;DHT22;23001;45.952;12.676;2023-04-07T00:09:48;6.80;99.90
37086;DHT22;23001;45.952;12.676;2023-04-07T00:12:13;6.80;99.90
37086;DHT22;23001;45.952;12.676;2023-04-07T00:14:39;6.70;99.90
37086;DHT22;23001;45.952;12.676;2023-04-07T00:17:12;6.70;99.90
37086;DHT22;23001;45.952;12.676;2023-04-07T00:19:38;6.80;99.90
37086;DHT22;23001;45.952;12.676;2023-04-07T00:22:08;6.70;99.90
37086;DHT22;23001;45.952;12.676;2023-04-07T00:24:33;6.60;99.90
37086;DHT22;23001;45.952;12.676;2023-04-07T00:26:59;6.50;99.90
37086;DHT22;23001;45.952;12.676;2023-04-07T00:29:25;6.50;99.90
37086;DHT22;23001;45.952;12.676;2023-04-07T00:31:51;6.70;99.90
37086;DHT22;23001;45.952;12.676;2023-04-07T00:34:17;6.80;99.90
37086;DHT22;23001;45.952;12.676;2023-04-07T00:36:42;6.70;99.90
37086;DHT22;23001;45.952;12.676;2023-04-07T00:39:08;6.60;99.90
37086;DHT22;23001;45.952;12.676;2023-04-07T00:41:34;6.40;99.90
37086;DHT22;23001;45.952;12.676;2023-04-07T00:44:00;6.60;99.90
37086;DHT22;23001;45.952;12.676;2023-04-07T00:46:26;6.70;99.90
37086;DHT22;23001;45.952;12.676;2023-04-07T00:48:52;6.60;99.90
37086;DHT22;23001;45.952;12.676;2023-04-07T00:51:20;6.60;99.90
37086;DHT22;23001;45.952;12.676;2023-04-07T00:53:47;6.70;99.90
37086;DHT22;23001;45.952;12.676;2023-04-07T00:56:13;6.40;99.90
37086;DHT22;23001;45.952;12.676;2023-04-07T00:58:38;6.30;99.90
37086;DHT22;23001;45.952;12.676;2023-04-07T01:01:08;6.40;99.90
37086;DHT22;23001;45.952;12.676;2023-04-07T01:03:48;6.50;99.90
37086;DHT22;23001;45.952;12.676;2023-04-07T01:06:16;6.50;99.90
37086;DHT22;23001;45.952;12.676;2023-04-07T01:08:56;6.30;99.90
37086;DHT22;23001;45.952;12.676;2023-04-07T01:11:30;6.20;99.90
37086;DHT22;23001;45.952;12.676;2023-04-07T01:13:57;6.30;99.90
37086;DHT22;23001;45.952;12.676;2023-04-07T01:16:27;6.30;99.90
37086;DHT22;23001;45.952;12.676;2023-04-07T01:18:56;6.20;99.90
37086;DHT22;23001;45.952;12.676;2023-04-07T01:21:21;6.20;99.90
37086;DHT22;23001;45.952;12.676;2023-04-07T01:26:29;6.30;99.90
37086;DHT22;23001;45.952;12.676;2023-04-07T01:31:40;6.20;99.90
37086;DHT22;23001;45.952;12.676;2023-04-07T01:34:09;6.20;99.90
37086;DHT22;23001;45.952;12.676;2023-04-07T01:36:36;6.20;99.90
37086;DHT22;23001;45.952;12.676;2023-04-07T01:39:01;6.10;99.90
37086;DHT22;23001;45.952;12.676;2023-04-07T01:41:27;6.10;99.90
37086;DHT22;23001;45.952;12.676;2023-04-07T01:43:54;6.30;99.90
37086;DHT22;23001;45.952;12.676;2023-04-07T01:46:21;6.20;99.90
37086;DHT22;23001;45.952;12.676;2023-04-07T01:48:47;6.10;99.90
37086;DHT22;23001;45.952;12.676;2023-04-07T01:51:13;6.10;99.90
37086;DHT22;23001;45.952;12.676;2023-04-07T01:53:42;6.20;99.90
37086;DHT22;23001;45.952;12.676;2023-04-07T01:56:07;6.10;99.90
37086;DHT22;23001;45.952;12.676;2023-04-07T01:58:33;6.00;99.90
37086;DHT22;23001;45.952;12.676;2023-04-07T02:00:58;6.00;99.90
37086;DHT22;23001;45.952;12.676;2023-04-07T02:03:32;6.10;99.90
37086;DHT22;23001;45.952;12.676;2023-04-07T02:06:03;6.10;99.90
37086;DHT22;23001;45.952;12.676;2023-04-07T02:08:30;6.20;99.90
37086;DHT22;23001;45.952;12.676;2023-04-07T02:10:57;6.10;99.90
37086;DHT22;23001;45.952;12.676;2023-04-07T02:13:23;6.10;99.90
37086;DHT22;23001;45.952;12.676;2023-04-07T02:15:50;6.10;99.90
37086;DHT22;23001;45.952;12.676;2023-04-07T02:18:19;6.00;99.90
37086;DHT22;23001;45.952;12.676;2023-04-07T02:20:45;6.10;99.90
37086;DHT22;23001;45.952;12.676;2023-04-07T02:23:12;6.00;99.90
37086;DHT22;23001;45.952;12.676;2023-04-07T02:25:38;6.00;99.90
37086;DHT22;23001;45.952;12.676;2023-04-07T02:28:04;6.00;99.90
37086;DHT22;23001;45.952;12.676;2023-04-07T02:30:30;6.10;99.90
37086;DHT22;23001;45.952;12.676;2023-04-07T02:32:56;6.10;99.90
37086;DHT22;23001;45.952;12.676;2023-04-07T02:35:22;5.90;99.90
37086;DHT22;23001;45.952;12.676;2023-04-07T02:37:48;5.80;99.90
37086;DHT22;23001;45.952;12.676;2023-04-07T02:40:13;5.80;99.90
37086;DHT22;23001;45.952;12.676;2023-04-07T02:42:40;5.80;99.90
37086;DHT22;23001;45.952;12.676;2023-04-07T02:45:05;5.80;99.90
37086;DHT22;23001;45.952;12.676;2023-04-07T02:47:32;5.80;99.90
37086;DHT22;23001;45.952;12.676;2023-04-07T02:49:58;5.90;99.90
37086;DHT22;23001;45.952;12.676;2023-04-07T02:52:23;5.80;99.90
37086;DHT22;23001;45.952;12.676;2023-04-07T02:54:49;5.80;99.90
37086;DHT22;23001;45.952;12.676;2023-04-07T02:57:17;5.70;99.90
37086;DHT22;23001;45.952;12.676;2023-04-07T02:59:43;5.80;99.90
37086;DHT22;23001;45.952;12.676;2023-04-07T03:02:09;5.90;99.90
37086;DHT22;23001;45.952;12.676;2023-04-07T03:04:34;5.80;99.90
37086;DHT22;23001;45.952;12.676;2023-04-07T03:07:00;5.60;99.90
37086;DHT22;23001;45.952;12.676;2023-04-07T03:09:29;5.50;99.90
37086;DHT22;23001;45.952;12.676;2023-04-07T03:11:55;5.50;99.90
37086;DHT22;23001;45.952;12.676;2023-04-07T03:14:21;5.50;99.90
37086;DHT22;23001;45.952;12.676;2023-04-07T03:16:47;5.40;99.90
37086;DHT22;23001;45.952;12.676;2023-04-07T03:19:12;5.40;99.90
37086;DHT22;23001;45.952;12.676;2023-04-07T03:21:38;5.30;99.90
37086;DHT22;23001;45.952;12.676;2023-04-07T03:24:04;5.30;99.90
37086;DHT22;23001;45.952;12.676;2023-04-07T03:26:30;5.40;99.90
37086;DHT22;23001;45.952;12.676;2023-04-07T03:28:56;5.40;99.90
37086;DHT22;23001;45.952;12.676;2023-04-07T03:31:21;5.40;99.90
37086;DHT22;23001;45.952;12.676;2023-04-07T03:33:48;5.30;99.90
37086;DHT22;23001;45.952;12.676;2023-04-07T03:36:13;5.10;99.90
37086;DHT22;23001;45.952;12.676;2023-04-07T03:38:39;5.10;99.90
37086;DHT22;23001;45.952;12.676;2023-04-07T03:41:05;5.20;99.90
37086;DHT22;23001;45.952;12.676;2023-04-07T03:43:30;5.10;99.90
37086;DHT22;23001;45.952;12.676;2023-04-07T03:45:56;5.20;99.90
37086;DHT22;23001;45.952;12.676;2023-04-07T03:48:22;5.40;99.90
37086;DHT22;23001;45.952;12.676;2023-04-07T03:50:47;5.20;99.90
37086;DHT22;23001;45.952;12.676;2023-04-07T03:53:13;5.20;99.90
37086;DHT22;23001;45.952;12.676;2023-04-07T03:55:40;5.10;99.90
37086;DHT22;23001;45.952;12.676;2023-04-07T03:58:06;5.20;99.90
37086;DHT22;23001;45.952;12.676;2023-04-07T04:00:32;5.10;99.90
37086;DHT22;23001;45.952;12.676;2023-04-07T04:02:58;5.10;99.90
37086;DHT22;23001;45.952;12.676;2023-04-07T04:05:24;5.00;99.90
37086;DHT22;23001;45.952;12.676;2023-04-07T04:07:49;5.00;99.90
37086;DHT22;23001;45.952;12.676;2023-04-07T04:10:18;4.90;99.90
37086;DHT22;23001;45.952;12.676;2023-04-07T04:12:44;5.00;99.90
37086;DHT22;23001;45.952;12.676;2023-04-07T04:15:10;5.00;99.90
37086;DHT22;23001;45.952;12.676;2023-04-07T04:17:36;5.00;99.90
37086;DHT22;23001;45.952;12.676;2023-04-07T04:20:02;4.90;99.90
37086;DHT22;23001;45.952;12.676;2023-04-07T04:22:28;5.10;99.90
37086;DHT22;23001;45.952;12.676;2023-04-07T04:24:56;5.00;99.90
37086;DHT22;23001;45.952;12.676;2023-04-07T04:27:22;5.00;99.90
37086;DHT22;23001;45.952;12.676;2023-04-07T04:29:48;5.00;99.90
37086;DHT22;23001;45.952;12.676;2023-04-07T04:32:13;5.00;99.90
37086;DHT22;23001;45.952;12.676;2023-04-07T04:34:39;4.90;99.90
37086;DHT22;23001;45.952;12.676;2023-04-07T04:37:08;4.90;99.90
37086;DHT22;23001;45.952;12.676;2023-04-07T04:39:33;4.90;99.90
37086;DHT22;23001;45.952;12.676;2023-04-07T04:41:59;5.00;99.90
37086;DHT22;23001;45.952;12.676;2023-04-07T04:44:25;5.10;99.90
37086;DHT22;23001;45.952;12.676;2023-04-07T04:46:53;5.10;99.90
37086;DHT22;23001;45.952;12.676;2023-04-07T04:49:21;5.10;99.90
37086;DHT22;23001;45.952;12.676;2023-04-07T04:51:47;5.00;99.90
37086;DHT22;23001;45.952;12.676;2023-04-07T04:54:13;5.20;99.90
37086;DHT22;23001;45.952;12.676;2023-04-07T04:56:39;5.20;99.90
37086;DHT22;23001;45.952;12.676;2023-04-07T04:59:04;5.00;99.90
37086;DHT22;23001;45.952;12.676;2023-04-07T05:01:30;5.00;99.90
37086;DHT22;23001;45.952;12.676;2023-04-07T05:03:56;5.20;99.90
37086;DHT22;23001;45.952;12.676;2023-04-07T05:06:21;5.10;99.90
37086;DHT22;23001;45.952;12.676;2023-04-07T05:08:47;5.10;99.90
37086;DHT22;23001;45.952;12.676;2023-04-07T05:11:13;5.20;99.90
37086;DHT22;23001;45.952;12.676;2023-04-07T05:13:38;5.20;99.90
37086;DHT22;23001;45.952;12.676;2023-04-07T05:16:04;5.20;99.90
37086;DHT22;23001;45.952;12.676;2023-04-07T05:18:30;5.30;99.90
37086;DHT22;23001;45.952;12.676;2023-04-07T05:20:56;5.40;99.90
37086;DHT22;23001;45.952;12.676;2023-04-07T05:23:22;5.30;99.90
37086;DHT22;23001;45.952;12.676;2023-04-07T05:25:47;5.30;99.90
37086;DHT22;23001;45.952;12.676;2023-04-07T05:28:13;5.40;99.90
37086;DHT22;23001;45.952;12.676;2023-04-07T05:30:39;5.30;99.90
37086;DHT22;23001;45.952;12.676;2023-04-07T05:33:04;5.40;99.90
37086;DHT22;23001;45.952;12.676;2023-04-07T05:35:30;5.30;99.90
37086;DHT22;23001;45.952;12.676;2023-04-07T05:37:56;5.30;99.90
37086;DHT22;23001;45.952;12.676;2023-04-07T05:40:24;5.30;99.90
37086;DHT22;23001;45.952;12.676;2023-04-07T05:42:50;5.30;99.90
37086;DHT22;23001;45.952;12.676;2023-04-07T05:45:24;5.30;99.90
37086;DHT22;23001;45.952;12.676;2023-04-07T05:47:50;5.40;99.90
37086;DHT22;23001;45.952;12.676;2023-04-07T05:50:16;5.50;99.90
37086;DHT22;23001;45.952;12.676;2023-04-07T05:52:44;5.70;99.90
37086;DHT22;23001;45.952;12.676;2023-04-07T05:55:13;5.80;99.90
37086;DHT22;23001;45.952;12.676;2023-04-07T05:57:39;5.80;99.90
37086;DHT22;23001;45.952;12.676;2023-04-07T06:00:05;5.80;99.90
37086;DHT22;23001;45.952;12.676;2023-04-07T06:05:41;5.90;99.90
37086;DHT22;23001;45.952;12.676;2023-04-07T06:08:46;6.40;99.90
37086;DHT22;23001;45.952;12.676;2023-04-07T06:11:12;6.70;99.90
37086;DHT22;23001;45.952;12.676;2023-04-07T06:13:38;7.10;99.90
37086;DHT22;23001;45.952;12.676;2023-04-07T06:16:04;7.40;99.90
37086;DHT22;23001;45.952;12.676;2023-04-07T06:18:30;7.60;99.90
37086;DHT22;23001;45.952;12.676;2023-04-07T06:20:56;7.90;99.90
37086;DHT22;23001;45.952;12.676;2023-04-07T06:23:22;8.20;99.90
37086;DHT22;23001;45.952;12.676;2023-04-07T06:25:47;8.20;99.90
37086;DHT22;23001;45.952;12.676;2023-04-07T06:28:16;8.20;99.90
37086;DHT22;23001;45.952;12.676;2023-04-07T06:30:49;8.50;99.90
37086;DHT22;23001;45.952;12.676;2023-04-07T06:33:18;8.40;99.90
37086;DHT22;23001;45.952;12.676;2023-04-07T06:35:46;8.70;99.90
37086;DHT22;23001;45.952;12.676;2023-04-07T06:38:12;9.10;99.90
37086;DHT22;23001;45.952;12.676;2023-04-07T06:40:38;9.40;99.90
37086;DHT22;23001;45.952;12.676;2023-04-07T06:43:06;9.50;99.90
37086;DHT22;23001;45.952;12.676;2023-04-07T06:45:32;9.50;99.90
37086;DHT22;23001;45.952;12.676;2023-04-07T06:47:57;9.20;99.90
37086;DHT22;23001;45.952;12.676;2023-04-07T06:50:23;9.30;99.90
37086;DHT22;23001;45.952;12.676;2023-04-07T06:52:49;9.60;99.80
37086;DHT22;23001;45.952;12.676;2023-04-07T06:55:14;9.70;99.70
37086;DHT22;23001;45.952;12.676;2023-04-07T06:57:40;9.60;98.70
37086;DHT22;23001;45.952;12.676;2023-04-07T07:00:06;9.80;98.80
37086;DHT22;23001;45.952;12.676;2023-04-07T07:02:33;9.90;98.20
37086;DHT22;23001;45.952;12.676;2023-04-07T07:04:59;10.20;98.50
37086;DHT22;23001;45.952;12.676;2023-04-07T07:07:24;10.60;98.10
37086;DHT22;23001;45.952;12.676;2023-04-07T07:09:50;10.80;97.70
37086;DHT22;23001;45.952;12.676;2023-04-07T07:12:16;10.90;97.10
37086;DHT22;23001;45.952;12.676;2023-04-07T07:14:42;11.20;97.00
37086;DHT22;23001;45.952;12.676;2023-04-07T07:17:08;11.40;96.50
37086;DHT22;23001;45.952;12.676;2023-04-07T07:19:35;11.30;96.80
37086;DHT22;23001;45.952;12.676;2023-04-07T07:22:00;11.20;96.60
37086;DHT22;23001;45.952;12.676;2023-04-07T07:27:31;11.30;96.80
37086;DHT22;23001;45.952;12.676;2023-04-07T07:29:56;11.20;96.60
37086;DHT22;23001;45.952;12.676;2023-04-07T07:32:24;11.30;96.50
37086;DHT22;23001;45.952;12.676;2023-04-07T07:34:56;10.90;97.10
37086;DHT22;23001;45.952;12.676;2023-04-07T07:37:30;10.70;96.90
37086;DHT22;23001;45.952;12.676;2023-04-07T07:39:56;10.40;97.30
37086;DHT22;23001;45.952;12.676;2023-04-07T07:42:27;10.70;97.00
37086;DHT22;23001;45.952;12.676;2023-04-07T07:44:53;11.10;96.40
37086;DHT22;23001;45.952;12.676;2023-04-07T07:47:18;11.10;97.10
37086;DHT22;23001;45.952;12.676;2023-04-07T07:49:45;11.30;96.50
37086;DHT22;23001;45.952;12.676;2023-04-07T07:52:10;11.80;95.90
37086;DHT22;23001;45.952;12.676;2023-04-07T07:54:36;11.80;96.00
37086;DHT22;23001;45.952;12.676;2023-04-07T08:41:17;12.20;98.30
37086;DHT22;23001;45.952;12.676;2023-04-07T08:44:08;12.50;98.10
37086;DHT22;23001;45.952;12.676;2023-04-07T08:49:43;12.50;98.10
37086;DHT22;23001;45.952;12.676;2023-04-07T08:52:14;12.50;97.40
37086;DHT22;23001;45.952;12.676;2023-04-07T09:00:51;12.40;99.30
37086;DHT22;23001;45.952;12.676;2023-04-07T09:03:20;12.40;98.80
37086;DHT22;23001;45.952;12.676;2023-04-07T09:05:46;12.40;99.10
37086;DHT22;23001;45.952;12.676;2023-04-07T09:08:55;12.50;99.10
37086;DHT22;23001;45.952;12.676;2023-04-07T09:11:20;12.80;98.40
37086;DHT22;23001;45.952;12.676;2023-04-07T09:13:49;12.70;98.20
37086;DHT22;23001;45.952;12.676;2023-04-07T09:16:15;12.70;98.80
37086;DHT22;23001;45.952;12.676;2023-04-07T09:18:41;12.50;99.00
37086;DHT22;23001;45.952;12.676;2023-04-07T09:24:19;12.60;99.50
37086;DHT22;23001;45.952;12.676;2023-04-07T09:27:17;12.90;99.90
37086;DHT22;23001;45.952;12.676;2023-04-07T09:29:44;12.70;98.50
37086;DHT22;23001;45.952;12.676;2023-04-07T09:32:10;12.60;99.50
37086;DHT22;23001;45.952;12.676;2023-04-07T09:34:37;12.70;98.80
37086;DHT22;23001;45.952;12.676;2023-04-07T09:37:06;12.60;99.00
37086;DHT22;23001;45.952;12.676;2023-04-07T09:39:36;12.80;99.20
37086;DHT22;23001;45.952;12.676;2023-04-07T09:42:15;12.80;99.30
37086;DHT22;23001;45.952;12.676;2023-04-07T09:44:41;12.80;98.80
37086;DHT22;23001;45.952;12.676;2023-04-07T09:49:58;13.30;99.10
37086;DHT22;23001;45.952;12.676;2023-04-07T09:55:23;13.50;98.40
37086;DHT22;23001;45.952;12.676;2023-04-07T09:57:52;13.50;97.80
37086;DHT22;23001;45.952;12.676;2023-04-07T10:00:19;13.70;96.80
37086;DHT22;23001;45.952;12.676;2023-04-07T10:02:45;13.70;96.60
37086;DHT22;23001;45.952;12.676;2023-04-07T10:05:12;13.70;96.50
37086;DHT22;23001;45.952;12.676;2023-04-07T10:07:38;13.70;97.10
37086;DHT22;23001;45.952;12.676;2023-04-07T10:10:04;13.70;97.20
37086;DHT22;23001;45.952;12.676;2023-04-07T10:12:38;13.90;97.30
37086;DHT22;23001;45.952;12.676;2023-04-07T10:15:08;13.70;97.50
37086;DHT22;23001;45.952;12.676;2023-04-07T10:20:48;13.90;98.00
37086;DHT22;23001;45.952;12.676;2023-04-07T10:23:18;13.60;98.10
37086;DHT22;23001;45.952;12.676;2023-04-07T10:25:46;13.60;98.40
37086;DHT22;23001;45.952;12.676;2023-04-07T10:28:13;13.90;97.80
37086;DHT22;23001;45.952;12.676;2023-04-07T10:30:48;14.20;96.90
37086;DHT22;23001;45.952;12.676;2023-04-07T10:33:20;14.10;95.70
37086;DHT22;23001;45.952;12.676;2023-04-07T10:36:04;14.20;95.50
37086;DHT22;23001;45.952;12.676;2023-04-07T10:38:33;14.20;97.10
37086;DHT22;23001;45.952;12.676;2023-04-07T10:41:46;14.10;97.30
37086;DHT22;23001;45.952;12.676;2023-04-07T10:43:47;14.00;96.60
37086;DHT22;23001;45.952;12.676;2023-04-07T10:46:13;13.90;97.20
37086;DHT22;23001;45.952;12.676;2023-04-07T10:48:46;14.10;97.80
37086;DHT22;23001;45.952;12.676;2023-04-07T10:51:24;14.30;97.20
37086;DHT22;23001;45.952;12.676;2023-04-07T10:54:33;14.40;96.60
37086;DHT22;23001;45.952;12.676;2023-04-07T10:59:25;14.50;97.10
37086;DHT22;23001;45.952;12.676;2023-04-07T11:02:08;14.60;96.50
37086;DHT22;23001;45.952;12.676;2023-04-07T11:04:51;14.80;96.20
37086;DHT22;23001;45.952;12.676;2023-04-07T11:07:20;14.50;95.40
37086;DHT22;23001;45.952;12.676;2023-04-07T11:10:51;14.60;96.10
37086;DHT22;23001;45.952;12.676;2023-04-07T11:13:07;14.40;96.10
37086;DHT22;23001;45.952;12.676;2023-04-07T11:15:36;14.50;95.90
37086;DHT22;23001;45.952;12.676;2023-04-07T11:18:06;14.50;95.70
37086;DHT22;23001;45.952;12.676;2023-04-07T11:20:41;14.60;95.70
37086;DHT22;23001;45.952;12.676;2023-04-07T11:23:15;14.60;96.00
37086;DHT22;23001;45.952;12.676;2023-04-07T11:25:43;14.70;95.50
37086;DHT22;23001;45.952;12.676;2023-04-07T11:28:09;14.80;95.10
37086;DHT22;23001;45.952;12.676;2023-04-07T11:30:36;14.80;94.80
37086;DHT22;23001;45.952;12.676;2023-04-07T11:33:03;15.00;94.00
37086;DHT22;23001;45.952;12.676;2023-04-07T11:35:28;14.90;93.80
37086;DHT22;23001;45.952;12.676;2023-04-07T11:37:58;14.90;94.00
37086;DHT22;23001;45.952;12.676;2023-04-07T11:40:30;14.80;95.10
37086;DHT22;23001;45.952;12.676;2023-04-07T11:42:56;14.80;94.30
37086;DHT22;23001;45.952;12.676;2023-04-07T11:45:22;14.80;94.00
37086;DHT22;23001;45.952;12.676;2023-04-07T11:47:48;14.80;94.70
37086;DHT22;23001;45.952;12.676;2023-04-07T11:50:15;14.90;94.70
37086;DHT22;23001;45.952;12.676;2023-04-07T11:52:44;15.00;94.30
37086;DHT22;23001;45.952;12.676;2023-04-07T11:55:16;15.10;94.20
37086;DHT22;23001;45.952;12.676;2023-04-07T11:57:42;15.20;92.30
37086;DHT22;23001;45.952;12.676;2023-04-07T12:00:08;15.20;92.60
37086;DHT22;23001;45.952;12.676;2023-04-07T12:02:37;15.20;92.70
37086;DHT22;23001;45.952;12.676;2023-04-07T12:05:12;15.00;92.80
37086;DHT22;23001;45.952;12.676;2023-04-07T12:07:38;15.10;93.40
37086;DHT22;23001;45.952;12.676;2023-04-07T12:10:17;15.30;93.50
37086;DHT22;23001;45.952;12.676;2023-04-07T12:12:44;15.50;93.00
37086;DHT22;23001;45.952;12.676;2023-04-07T12:15:10;15.70;92.80
37086;DHT22;23001;45.952;12.676;2023-04-07T12:17:36;15.70;91.50
37086;DHT22;23001;45.952;12.676;2023-04-07T12:20:01;15.70;91.30
37086;DHT22;23001;45.952;12.676;2023-04-07T12:22:27;15.80;91.70
37086;DHT22;23001;45.952;12.676;2023-04-07T12:24:53;15.90;89.50
37086;DHT22;23001;45.952;12.676;2023-04-07T12:27:18;15.90;90.20
37086;DHT22;23001;45.952;12.676;2023-04-07T12:29:44;15.70;90.10
37086;DHT22;23001;45.952;12.676;2023-04-07T12:32:10;15.70;89.50
37086;DHT22;23001;45.952;12.676;2023-04-07T12:34:35;15.80;88.20
37086;DHT22;23001;45.952;12.676;2023-04-07T12:37:04;15.70;88.70
37086;DHT22;23001;45.952;12.676;2023-04-07T12:39:30;15.80;89.70
37086;DHT22;23001;45.952;12.676;2023-04-07T12:51:34;16.00;86.80
37086;DHT22;23001;45.952;12.676;2023-04-07T12:54:07;15.70;87.90
37086;DHT22;23001;45.952;12.676;2023-04-07T13:31:12;15.80;89.10
37086;DHT22;23001;45.952;12.676;2023-04-07T13:55:21;16.00;84.10
37086;DHT22;23001;45.952;12.676;2023-04-07T13:58:08;16.00;82.60
37086;DHT22;23001;45.952;12.676;2023-04-07T14:00:43;16.20;83.50
37086;DHT22;23001;45.952;12.676;2023-04-07T14:03:08;16.50;85.40
37086;DHT22;23001;45.952;12.676;2023-04-07T14:05:36;16.60;82.60
37086;DHT22;23001;45.952;12.676;2023-04-07T14:08:16;16.70;80.80
37086;DHT22;23001;45.952;12.676;2023-04-07T14:10:48;16.70;81.90
37086;DHT22;23001;45.952;12.676;2023-04-07T14:13:26;17.00;79.40
37086;DHT22;23001;45.952;12.676;2023-04-07T14:15:57;17.00;80.50
37086;DHT22;23001;45.952;12.676;2023-04-07T14:18:34;17.10;79.30
37086;DHT22;23001;45.952;12.676;2023-04-07T14:21:08;17.00;80.20
37086;DHT22;23001;45.952;12.676;2023-04-07T14:24:19;16.90;79.30
37086;DHT22;23001;45.952;12.676;2023-04-07T14:26:38;16.80;78.00
37086;DHT22;23001;45.952;12.676;2023-04-07T14:29:04;16.70;78.20
37086;DHT22;23001;45.952;12.676;2023-04-07T14:31:50;16.40;79.40
37086;DHT22;23001;45.952;12.676;2023-04-07T14:34:16;16.60;79.20
37086;DHT22;23001;45.952;12.676;2023-04-07T14:36:42;16.70;78.80
37086;DHT22;23001;45.952;12.676;2023-04-07T14:39:16;16.50;76.50
37086;DHT22;23001;45.952;12.676;2023-04-07T14:50:42;16.70;77.30
37086;DHT22;23001;45.952;12.676;2023-04-07T14:53:36;16.70;79.00
37086;DHT22;23001;45.952;12.676;2023-04-07T14:55:57;16.70;76.20
37086;DHT22;23001;45.952;12.676;2023-04-07T14:58:31;16.60;75.90
37086;DHT22;23001;45.952;12.676;2023-04-07T15:01:09;16.50;78.20
37086;DHT22;23001;45.952;12.676;2023-04-07T15:03:34;16.30;76.70
37086;DHT22;23001;45.952;12.676;2023-04-07T15:06:06;16.30;76.70
37086;DHT22;23001;45.952;12.676;2023-04-07T15:08:44;16.20;77.70
37086;DHT22;23001;45.952;12.676;2023-04-07T15:20:38;15.90;79.50
37086;DHT22;23001;45.952;12.676;2023-04-07T15:23:16;15.80;79.20
37086;DHT22;23001;45.952;12.676;2023-04-07T15:25:46;15.90;79.00
37086;DHT22;23001;45.952;12.676;2023-04-07T15:31:03;16.00;77.40
37086;DHT22;23001;45.952;12.676;2023-04-07T15:34:03;16.10;76.50
37086;DHT22;23001;45.952;12.676;2023-04-07T15:54:41;15.60;78.80
37086;DHT22;23001;45.952;12.676;2023-04-07T15:57:12;15.60;79.00
37086;DHT22;23001;45.952;12.676;2023-04-07T16:00:26;15.50;80.70
37086;DHT22;23001;45.952;12.676;2023-04-07T16:02:56;15.60;78.60
37086;DHT22;23001;45.952;12.676;2023-04-07T16:05:43;15.50;81.00
37086;DHT22;23001;45.952;12.676;2023-04-07T16:08:29;15.50;80.20
37086;DHT22;23001;45.952;12.676;2023-04-07T16:11:03;15.30;81.50
37086;DHT22;23001;45.952;12.676;2023-04-07T16:16:35;15.30;82.20
37086;DHT22;23001;45.952;12.676;2023-04-07T16:25:38;15.40;81.60
37086;DHT22;23001;45.952;12.676;2023-04-07T16:28:15;15.50;81.60
37086;DHT22;23001;45.952;12.676;2023-04-07T16:30:41;15.40;80.80
37086;DHT22;23001;45.952;12.676;2023-04-07T16:33:15;15.40;81.40
37086;DHT22;23001;45.952;12.676;2023-04-07T16:35:50;15.20;81.00
37086;DHT22;23001;45.952;12.676;2023-04-07T16:38:34;15.10;81.40
37086;DHT22;23001;45.952;12.676;2023-04-07T16:41:02;15.10;81.60
37086;DHT22;23001;45.952;12.676;2023-04-07T16:43:57;15.00;82.00
37086;DHT22;23001;45.952;12.676;2023-04-07T16:46:32;15.00;82.70
37086;DHT22;23001;45.952;12.676;2023-04-07T16:49:31;15.00;81.80
37086;DHT22;23001;45.952;12.676;2023-04-07T16:55:22;14.80;82.30
37086;DHT22;23001;45.952;12.676;2023-04-07T16:58:09;14.80;81.00
37086;DHT22;23001;45.952;12.676;2023-04-07T17:00:35;14.70;82.00
37086;DHT22;23001;45.952;12.676;2023-04-07T17:03:00;14.60;81.70
37086;DHT22;23001;45.952;12.676;2023-04-07T17:05:26;14.50;83.30
37086;DHT22;23001;45.952;12.676;2023-04-07T17:07:51;14.40;81.80
37086;DHT22;23001;45.952;12.676;2023-04-07T17:10:17;14.40;82.70
37086;DHT22;23001;45.952;12.676;2023-04-07T17:16:01;14.20;82.50
37086;DHT22;23001;45.952;12.676;2023-04-07T17:21:45;14.10;82.50
37086;DHT22;23001;45.952;12.676;2023-04-07T17:24:11;14.10;82.00
37086;DHT22;23001;45.952;12.676;2023-04-07T17:26:47;14.00;82.60
37086;DHT22;23001;45.952;12.676;2023-04-07T17:29:13;13.90;82.50
37086;DHT22;23001;45.952;12.676;2023-04-07T17:31:38;13.90;81.70
37086;DHT22;23001;45.952;12.676;2023-04-07T17:34:07;13.80;81.30
37086;DHT22;23001;45.952;12.676;2023-04-07T17:39:52;13.70;81.30
37086;DHT22;23001;45.952;12.676;2023-04-07T17:42:24;13.80;82.20
37086;DHT22;23001;45.952;12.676;2023-04-07T17:45:07;13.90;81.90
37086;DHT22;23001;45.952;12.676;2023-04-07T17:47:33;13.90;82.20
37086;DHT22;23001;45.952;12.676;2023-04-07T17:49:59;13.90;82.60
37086;DHT22;23001;45.952;12.676;2023-04-07T17:52:26;13.90;82.90
37086;DHT22;23001;45.952;12.676;2023-04-07T17:54:53;13.90;82.90
37086;DHT22;23001;45.952;12.676;2023-04-07T17:57:19;13.90;83.50
37086;DHT22;23001;45.952;12.676;2023-04-07T17:59:45;13.60;84.50
37086;DHT22;23001;45.952;12.676;2023-04-07T18:02:11;13.40;85.40
37086;DHT22;23001;45.952;12.676;2023-04-07T18:04:39;13.30;86.50
37086;DHT22;23001;45.952;12.676;2023-04-07T18:07:09;13.40;87.20
37086;DHT22;23001;45.952;12.676;2023-04-07T18:09:37;13.50;86.30
37086;DHT22;23001;45.952;12.676;2023-04-07T18:12:02;13.40;87.50
37086;DHT22;23001;45.952;12.676;2023-04-07T18:14:28;13.30;87.90
37086;DHT22;23001;45.952;12.676;2023-04-07T18:16:54;13.20;88.80
37086;DHT22;23001;45.952;12.676;2023-04-07T18:19:20;13.00;89.60
37086;DHT22;23001;45.952;12.676;2023-04-07T18:21:48;13.00;90.30
37086;DHT22;23001;45.952;12.676;2023-04-07T18:24:15;12.90;90.20
37086;DHT22;23001;45.952;12.676;2023-04-07T18:26:41;12.80;90.40
37086;DHT22;23001;45.952;12.676;2023-04-07T18:29:08;12.90;90.40
37086;DHT22;23001;45.952;12.676;2023-04-07T18:31:35;12.80;90.20
37086;DHT22;23001;45.952;12.676;2023-04-07T18:34:01;12.80;90.30
37086;DHT22;23001;45.952;12.676;2023-04-07T18:36:26;12.70;90.10
37086;DHT22;23001;45.952;12.676;2023-04-07T18:38:52;12.70;90.30
37086;DHT22;23001;45.952;12.676;2023-04-07T18:41:18;12.60;90.20
37086;DHT22;23001;45.952;12.676;2023-04-07T18:43:43;12.70;90.70
37086;DHT22;23001;45.952;12.676;2023-04-07T18:46:12;12.60;90.60
37086;DHT22;23001;45.952;12.676;2023-04-07T18:48:37;12.60;90.60
37086;DHT22;23001;45.952;12.676;2023-04-07T18:51:05;12.50;91.00
37086;DHT22;23001;45.952;12.676;2023-04-07T18:53:31;12.50;91.10
37086;DHT22;23001;45.952;12.676;2023-04-07T18:55:57;12.50;91.40
37086;DHT22;23001;45.952;12.676;2023-04-07T18:58:23;12.60;91.50
37086;DHT22;23001;45.952;12.676;2023-04-07T19:00:48;12.50;91.50